createdAt,value
2023-04-13T00:00:51.922Z,9.68
2023-04-13T00:05:55.863Z,8.82
2023-04-13T00:11:00.211Z,8.17
2023-04-13T00:16:03.393Z,7.71
2023-04-13T00:21:07.602Z,8.23
2023-04-13T00:26:10.664Z,10.46
2023-04-13T00:31:14.003Z,11.66
2023-04-13T00:36:17.978Z,12.43
2023-04-13T00:41:21.076Z,12.17
2023-04-13T00:46:24.808Z,10.25
2023-04-13T00:51:30.531Z,9.00
2023-04-13T00:56:34.573Z,8.15
2023-04-13T01:01:46.562Z,7.55
2023-04-13T01:07:18.825Z,7.08
2023-04-13T01:12:56.816Z,7.81
2023-04-13T01:18:07.605Z,10.31
2023-04-13T01:23:53.541Z,11.59
2023-04-13T01:28:58.324Z,11.38
2023-04-13T01:34:02.304Z,9.60
2023-04-13T01:39:06.011Z,8.47
2023-04-13T01:44:09.323Z,7.68
2023-04-13T01:49:19.681Z,7.11
2023-04-13T01:54:27.654Z,6.71
2023-04-13T01:59:31.138Z,7.32
2023-04-13T02:04:34.248Z,9.72
2023-04-13T02:09:37.347Z,11.14
2023-04-13T02:14:40.559Z,12.05
2023-04-13T02:19:44.296Z,11.92
2023-04-13T02:24:47.899Z,10.10
2023-04-13T02:29:52.640Z,8.86
2023-04-13T02:34:55.750Z,7.84
2023-04-13T02:39:58.857Z,7.06
2023-04-13T02:45:02.087Z,7.48
2023-04-13T02:50:06.972Z,9.77
2023-04-13T02:55:11.300Z,11.10
2023-04-13T03:00:16.262Z,11.86
2023-04-13T03:05:20.125Z,11.62
2023-04-13T03:10:23.323Z,9.77
2023-04-13T03:15:26.327Z,8.54
2023-04-13T03:20:29.562Z,7.69
2023-04-13T03:25:33.862Z,7.06
2023-04-13T03:30:37.808Z,6.56
2023-04-13T03:35:41.321Z,7.01
2023-04-13T03:40:44.937Z,9.36
2023-04-13T03:45:48.044Z,10.78
2023-04-13T03:50:51.149Z,11.58
2023-04-13T03:55:54.568Z,11.26
2023-04-13T04:00:57.981Z,9.37
2023-04-13T04:06:01.308Z,8.11
2023-04-13T04:11:05.201Z,7.29
2023-04-13T04:16:09.730Z,6.73
2023-04-13T04:21:15.751Z,7.05
2023-04-13T04:26:25.914Z,9.30
2023-04-13T04:31:37.394Z,10.78
2023-04-13T04:36:42.241Z,11.71
2023-04-13T04:41:45.362Z,11.60
2023-04-13T04:46:49.426Z,9.82
2023-04-13T04:51:53.127Z,8.48
2023-04-13T04:56:58.319Z,7.73
2023-04-13T05:02:01.377Z,7.33
2023-04-13T05:07:04.581Z,8.06
2023-04-13T05:12:07.785Z,10.53
2023-04-13T05:17:10.993Z,12.16
2023-04-13T05:22:16.042Z,13.22
2023-04-13T05:27:19.045Z,13.11
2023-04-13T05:32:22.159Z,11.29
2023-04-13T05:37:25.264Z,10.09
2023-04-13T05:42:28.400Z,9.24
2023-04-13T05:47:31.924Z,9.45
2023-04-13T05:52:35.407Z,11.66
2023-04-13T05:57:38.501Z,13.04
2023-04-13T06:02:42.236Z,13.85
2023-04-13T06:07:46.790Z,14.42
2023-04-13T06:12:50.888Z,14.13
2023-04-13T06:17:54.283Z,12.36
2023-04-13T06:22:57.613Z,11.17
2023-04-13T06:28:02.723Z,10.39
2023-04-13T06:33:06.430Z,9.84
2023-04-13T06:38:10.419Z,10.26
2023-04-13T06:43:26.428Z,12.44
2023-04-13T06:48:33.250Z,13.82
2023-04-13T06:53:36.318Z,14.74
2023-04-13T06:58:39.427Z,14.81
2023-04-13T07:03:43.739Z,13.28
2023-04-13T07:08:47.304Z,12.32
2023-04-13T07:13:50.390Z,11.75
2023-04-13T07:18:53.511Z,11.27
2023-04-13T07:23:56.632Z,10.89
2023-04-13T07:28:59.995Z,11.68
2023-04-13T07:34:03.337Z,14.21
2023-04-13T07:39:09.101Z,15.86
2023-04-13T07:44:12.714Z,16.11
2023-04-13T07:49:15.859Z,14.79
2023-04-13T07:54:19.024Z,13.80
2023-04-13T07:59:24.123Z,13.24
2023-04-13T08:04:28.468Z,13.02
2023-04-13T08:09:36.760Z,12.88
2023-04-13T08:14:39.949Z,12.82
2023-04-13T08:19:43.062Z,13.20
2023-04-13T08:24:46.099Z,15.55
2023-04-13T08:29:56.330Z,16.55
2023-04-13T08:34:59.855Z,15.55
2023-04-13T08:40:07.604Z,14.86
2023-04-13T08:45:13.200Z,14.48
2023-04-13T08:50:17.599Z,14.17
2023-04-13T08:55:20.810Z,14.11
2023-04-13T09:00:25.721Z,14.32
2023-04-13T09:05:30.943Z,14.68
2023-04-13T09:10:35.421Z,15.01
2023-04-13T09:15:39.348Z,15.21
2023-04-13T09:20:42.654Z,15.38
2023-04-13T09:25:46.993Z,15.56
2023-04-13T09:30:50.228Z,15.86
2023-04-13T09:35:53.412Z,16.19
2023-04-13T09:40:58.465Z,16.50
2023-04-13T09:46:01.816Z,16.75
2023-04-13T09:51:08.747Z,17.09
2023-04-13T09:56:12.501Z,17.41
2023-04-13T10:01:15.780Z,17.66
2023-04-13T10:06:20.656Z,17.78
2023-04-13T10:11:24.779Z,17.93
2023-04-13T10:16:54.130Z,18.17
2023-04-13T10:21:58.918Z,18.47
2023-04-13T10:27:14.394Z,18.75
2023-04-13T10:32:26.990Z,19.00
2023-04-13T10:37:30.284Z,19.03
2023-04-13T10:47:58.787Z,18.97
2023-04-13T10:53:07.924Z,19.05
2023-04-13T10:58:18.489Z,19.44
2023-04-13T11:03:22.473Z,19.83
2023-04-13T11:08:28.298Z,20.26
2023-04-13T11:13:32.970Z,20.54
2023-04-13T11:18:36.401Z,20.72
2023-04-13T11:23:39.544Z,20.65
2023-04-13T11:28:46.413Z,20.65
2023-04-13T11:33:49.754Z,20.60
2023-04-13T11:38:54.569Z,20.59
2023-04-13T11:43:58.076Z,20.56
2023-04-13T11:49:01.938Z,20.48
2023-04-13T11:54:07.015Z,20.39
2023-04-13T11:59:10.084Z,20.35
2023-04-13T12:04:16.371Z,20.36
2023-04-13T12:09:20.853Z,20.44
2023-04-13T12:19:43.184Z,20.54
2023-04-13T12:24:48.153Z,20.65
2023-04-13T12:29:51.850Z,21.01
2023-04-13T12:34:54.946Z,21.06
2023-04-13T12:39:58.479Z,21.04
2023-04-13T12:45:01.566Z,20.95
2023-04-13T12:50:10.594Z,20.68
2023-04-13T12:55:13.754Z,20.67
2023-04-13T13:00:18.254Z,20.64
2023-04-13T13:05:21.586Z,20.37
2023-04-13T13:10:29.499Z,20.02
2023-04-13T13:15:34.272Z,19.60
2023-04-13T13:20:41.566Z,19.47
2023-04-13T13:25:54.286Z,19.37
2023-04-13T13:31:09.084Z,19.33
2023-04-13T13:36:14.665Z,19.23
2023-04-13T13:41:18.537Z,19.19
2023-04-13T13:46:21.715Z,19.15
2023-04-13T13:51:24.952Z,19.07
2023-04-13T13:56:27.976Z,19.10
2023-04-13T14:01:31.707Z,19.18
2023-04-13T14:06:34.886Z,19.19
2023-04-13T14:11:38.224Z,19.14
2023-04-13T14:16:41.613Z,19.14
2023-04-13T14:21:44.735Z,19.15
2023-04-13T14:26:47.840Z,19.13
2023-04-13T14:31:50.853Z,19.05
2023-04-13T14:36:54.523Z,18.95
2023-04-13T14:41:57.698Z,18.87
2023-04-13T14:47:01.781Z,18.93
2023-04-13T14:52:05.095Z,19.01
2023-04-13T14:57:10.066Z,19.09
2023-04-13T15:02:13.365Z,19.26
2023-04-13T15:07:16.789Z,19.27
2023-04-13T15:12:19.982Z,19.23
2023-04-13T15:17:23.191Z,19.23
2023-04-13T15:22:26.641Z,19.29
2023-04-13T15:27:29.979Z,19.38
2023-04-13T15:32:36.435Z,19.32
2023-04-13T15:37:39.932Z,19.17
2023-04-13T15:42:43.128Z,19.07
2023-04-13T15:47:46.727Z,19.09
2023-04-13T15:52:50.108Z,19.31
2023-04-13T15:57:54.113Z,19.64
2023-04-13T16:02:57.608Z,19.84
2023-04-13T16:08:01.228Z,19.88
2023-04-13T16:13:06.708Z,19.75
2023-04-13T16:18:09.787Z,19.53
2023-04-13T16:23:14.543Z,19.36
2023-04-13T16:28:17.842Z,19.16
2023-04-13T16:33:21.055Z,18.82
2023-04-13T16:38:24.157Z,18.50
2023-04-13T16:43:27.276Z,18.15
2023-04-13T16:48:30.979Z,17.85
2023-04-13T16:53:33.988Z,17.55
2023-04-13T16:58:38.112Z,17.13
2023-04-13T17:03:41.293Z,16.85
2023-04-13T17:08:44.534Z,16.66
2023-04-13T17:13:47.635Z,16.48
2023-04-13T17:18:50.780Z,16.31
2023-04-13T17:23:53.960Z,16.14
2023-04-13T17:28:57.309Z,16.00
2023-04-13T17:34:00.788Z,15.88
2023-04-13T17:39:06.755Z,15.77
2023-04-13T17:44:09.957Z,15.69
2023-04-13T17:49:13.398Z,15.60
2023-04-13T17:54:16.479Z,15.53
2023-04-13T17:59:19.587Z,15.46
2023-04-13T18:04:22.913Z,15.33
2023-04-13T18:09:28.312Z,15.19
2023-04-13T18:14:31.484Z,15.09
2023-04-13T18:19:34.987Z,14.95
2023-04-13T18:24:39.046Z,14.80
2023-04-13T18:29:42.223Z,14.69
2023-04-13T18:34:45.350Z,14.55
2023-04-13T18:39:48.540Z,14.38
2023-04-13T18:44:51.670Z,14.25
2023-04-13T18:49:55.364Z,14.11
2023-04-13T18:54:59.299Z,13.96
2023-04-13T19:00:02.426Z,13.84
2023-04-13T19:05:06.291Z,13.76
2023-04-13T19:10:11.268Z,13.69
2023-04-13T19:15:14.373Z,13.60
2023-04-13T19:20:18.284Z,13.48
2023-04-13T19:25:21.943Z,13.32
2023-04-13T19:30:25.247Z,13.17
2023-04-13T19:35:29.364Z,13.06
2023-04-13T19:40:32.464Z,12.97
2023-04-13T19:45:36.266Z,12.85
2023-04-13T19:50:39.292Z,12.71
2023-04-13T19:55:42.528Z,13.41
2023-04-13T20:00:47.441Z,15.76
2023-04-13T20:05:50.760Z,17.04
2023-04-13T20:10:54.071Z,16.99
2023-04-13T20:15:57.131Z,15.37
2023-04-13T20:21:00.800Z,14.31
2023-04-13T20:26:04.716Z,13.61
2023-04-13T20:31:08.615Z,13.11
2023-04-13T20:36:12.395Z,12.72
2023-04-13T20:41:15.385Z,12.42
2023-04-13T20:46:18.943Z,13.01
2023-04-13T20:51:23.632Z,15.10
2023-04-13T20:56:26.685Z,16.31
2023-04-13T21:01:30.663Z,16.29
2023-04-13T21:06:37.680Z,14.73
2023-04-13T21:11:42.772Z,13.70
2023-04-13T21:16:45.970Z,12.97
2023-04-13T21:21:49.250Z,12.42
2023-04-13T21:26:52.411Z,12.02
2023-04-13T21:31:55.607Z,11.69
2023-04-13T21:37:01.844Z,12.31
2023-04-13T21:42:05.540Z,14.57
2023-04-13T21:47:08.615Z,15.85
2023-04-13T21:52:11.668Z,15.79
2023-04-13T21:57:14.868Z,14.04
2023-04-13T22:02:17.959Z,12.83
2023-04-13T22:07:31.483Z,12.03
2023-04-13T22:12:42.427Z,12.40
2023-04-13T22:17:45.708Z,14.44
2023-04-13T22:22:48.945Z,15.67
2023-04-13T22:27:53.370Z,16.36
2023-04-13T22:32:57.358Z,16.02
2023-04-13T22:38:00.405Z,14.29
2023-04-13T22:43:03.412Z,13.11
2023-04-13T22:48:06.908Z,12.26
2023-04-13T22:53:10.075Z,11.58
2023-04-13T22:58:13.235Z,11.82
2023-04-13T23:03:16.745Z,13.86
2023-04-13T23:08:21.029Z,14.99
2023-04-13T23:13:24.101Z,15.54
2023-04-13T23:18:27.820Z,15.12
2023-04-13T23:23:30.845Z,13.28
2023-04-13T23:28:33.922Z,12.09
2023-04-13T23:33:37.468Z,11.30
2023-04-13T23:38:40.549Z,11.47
2023-04-13T23:43:43.668Z,13.29
2023-04-13T23:48:46.767Z,14.26
2023-04-13T23:53:49.873Z,14.80
2023-04-13T23:58:53.075Z,15.31
